createdAt,value
2018-05-17T00:01:30.888Z,70.54
2018-05-17T00:03:59.248Z,70.00
2018-05-17T00:06:27.568Z,70.47
2018-05-17T00:08:55.930Z,70.72
2018-05-17T00:11:24.256Z,70.31
2018-05-17T00:13:52.625Z,70.08
2018-05-17T00:16:20.960Z,70.73
2018-05-17T00:18:49.301Z,70.48
2018-05-17T00:21:17.657Z,70.48
2018-05-17T00:23:45.984Z,70.77
2018-05-17T00:26:14.346Z,71.07
2018-05-17T00:28:42.680Z,70.28
2018-05-17T00:31:11.041Z,70.68
2018-05-17T00:33:39.369Z,70.47
2018-05-17T00:36:07.724Z,70.52
2018-05-17T00:38:36.060Z,70.82
2018-05-17T00:41:04.418Z,70.88
2018-05-17T00:43:32.745Z,70.92
2018-05-17T00:46:01.101Z,70.46
2018-05-17T00:48:29.428Z,70.18
2018-05-17T00:50:57.776Z,70.64
2018-05-17T00:53:31.934Z,70.38
2018-05-17T00:56:00.288Z,70.49
2018-05-17T00:58:28.624Z,70.71
2018-05-17T01:00:56.980Z,70.72
2018-05-17T01:03:25.316Z,70.32
2018-05-17T01:05:53.672Z,70.43
2018-05-17T01:08:22.017Z,69.91
2018-05-17T01:10:50.374Z,69.83
2018-05-17T01:13:18.701Z,70.64
2018-05-17T01:15:47.057Z,70.35
2018-05-17T01:18:15.406Z,70.42
2018-05-17T01:20:43.765Z,70.47
2018-05-17T01:23:12.097Z,70.09
2018-05-17T01:25:40.449Z,70.16
2018-05-17T01:28:08.780Z,69.90
2018-05-17T01:30:37.143Z,70.84
2018-05-17T01:33:05.477Z,71.06
2018-05-17T01:35:33.848Z,71.09
2018-05-17T01:38:13.792Z,70.31
2018-05-17T01:40:42.156Z,70.55
2018-05-17T01:43:10.497Z,70.59
2018-05-17T01:45:38.844Z,70.57
2018-05-17T01:48:07.188Z,70.26
2018-05-17T01:50:35.544Z,69.98
2018-05-17T01:53:03.873Z,70.42
2018-05-17T01:55:32.229Z,70.23
2018-05-17T01:58:00.570Z,70.53
2018-05-17T02:00:28.927Z,70.41
2018-05-17T02:02:57.275Z,70.26
2018-05-17T02:05:25.629Z,70.47
2018-05-17T02:07:53.961Z,70.37
2018-05-17T02:10:22.323Z,69.71
2018-05-17T02:12:50.679Z,69.68
2018-05-17T02:15:19.032Z,69.80
2018-05-17T02:17:47.369Z,70.17
2018-05-17T02:20:15.727Z,69.92
2018-05-17T02:22:44.065Z,70.27
2018-05-17T02:25:12.415Z,69.49
2018-05-17T02:27:40.765Z,69.84
2018-05-17T02:30:09.121Z,69.95
2018-05-17T02:32:37.456Z,69.52
2018-05-17T02:35:05.821Z,69.87
2018-05-17T02:37:34.161Z,69.63
2018-05-17T02:40:02.497Z,69.93
2018-05-17T02:42:30.852Z,70.11
2018-05-17T02:44:59.201Z,69.41
2018-05-17T02:47:27.553Z,69.58
2018-05-17T02:49:55.896Z,70.00
2018-05-17T02:52:24.252Z,69.34
2018-05-17T02:54:52.588Z,69.34
2018-05-17T02:57:20.955Z,69.28
2018-05-17T02:59:49.281Z,69.00
2018-05-17T03:02:17.642Z,69.26
2018-05-17T03:04:45.968Z,69.31
2018-05-17T03:07:14.320Z,69.76
2018-05-17T03:09:42.657Z,69.83
2018-05-17T03:12:11.013Z,68.79
2018-05-17T03:14:39.354Z,68.64
2018-05-17T03:17:07.704Z,68.50
2018-05-17T03:19:36.041Z,69.13
2018-05-17T03:22:04.396Z,68.86
2018-05-17T03:24:32.729Z,69.69
2018-05-17T03:27:01.094Z,69.09
2018-05-17T03:29:29.424Z,68.77
2018-05-17T03:31:57.777Z,68.87
2018-05-17T03:34:26.191Z,69.53
2018-05-17T03:36:54.460Z,69.41
2018-05-17T03:39:22.793Z,69.72
2018-05-17T03:41:51.148Z,70.49
2018-05-17T03:44:19.485Z,70.42
2018-05-17T03:46:47.837Z,69.40
2018-05-17T03:49:16.173Z,69.07
2018-05-17T03:51:44.576Z,69.05
2018-05-17T03:54:12.869Z,69.48
2018-05-17T03:56:41.229Z,68.94
2018-05-17T03:59:09.557Z,69.25
2018-05-17T04:01:49.636Z,68.96
2018-05-17T04:07:19.924Z,67.92
2018-05-17T04:09:48.253Z,67.65
2018-05-17T04:12:16.608Z,67.59
2018-05-17T04:14:44.936Z,67.98
2018-05-17T04:17:13.295Z,68.18
2018-05-17T04:19:41.617Z,68.13
2018-05-17T04:22:09.968Z,68.15
2018-05-17T04:24:38.305Z,67.79
2018-05-17T04:27:06.657Z,68.43
2018-05-17T04:29:34.993Z,67.83
2018-05-17T04:32:03.346Z,68.07
2018-05-17T04:34:31.677Z,67.98
2018-05-17T04:37:00.041Z,67.96
2018-05-17T04:39:28.372Z,67.87
2018-05-17T04:41:56.729Z,68.02
2018-05-17T04:44:25.057Z,67.92
2018-05-17T04:46:53.408Z,67.54
2018-05-17T04:49:21.749Z,67.36
2018-05-17T04:51:50.105Z,66.73
2018-05-17T04:54:18.433Z,67.41
2018-05-17T04:56:46.789Z,67.63
2018-05-17T04:59:15.130Z,67.39
2018-05-17T05:01:43.480Z,67.57
2018-05-17T05:04:12.012Z,67.92
2018-05-17T05:06:40.584Z,67.84
2018-05-17T05:09:08.933Z,67.39
2018-05-17T05:11:37.259Z,66.68
2018-05-17T05:14:05.620Z,67.27
2018-05-17T05:16:35.962Z,67.17
2018-05-17T05:19:04.304Z,66.88
2018-05-17T05:21:32.640Z,66.96
2018-05-17T05:24:00.985Z,66.02
2018-05-17T05:26:29.317Z,65.98
2018-05-17T05:28:57.673Z,66.16
2018-05-17T05:31:26.084Z,66.71
2018-05-17T05:33:54.437Z,65.52
2018-05-17T05:36:22.848Z,64.75
2018-05-17T05:38:51.192Z,65.80
2018-05-17T05:41:19.529Z,65.67
2018-05-17T05:43:47.897Z,66.44
2018-05-17T05:46:16.229Z,65.97
2018-05-17T05:48:44.576Z,66.53
2018-05-17T05:51:12.905Z,65.94
2018-05-17T05:53:41.259Z,65.57
2018-05-17T05:56:09.593Z,65.83
2018-05-17T05:58:37.950Z,65.17
2018-05-17T06:01:06.284Z,65.85
2018-05-17T06:03:34.632Z,65.34
2018-05-17T06:06:02.960Z,65.26
2018-05-17T06:08:31.314Z,66.24
2018-05-17T06:10:59.646Z,66.39
2018-05-17T06:13:28.001Z,65.07
2018-05-17T06:15:56.337Z,65.41
2018-05-17T06:18:24.690Z,65.90
2018-05-17T06:20:53.020Z,66.06
2018-05-17T06:23:21.386Z,65.34
2018-05-17T06:25:49.716Z,64.75
2018-05-17T06:28:18.078Z,65.58
2018-05-17T06:30:46.408Z,65.35
2018-05-17T06:33:14.772Z,64.94
2018-05-17T06:35:43.113Z,65.58
2018-05-17T06:38:11.474Z,65.77
2018-05-17T06:40:39.806Z,65.22
2018-05-17T06:43:08.170Z,65.08
2018-05-17T06:45:36.510Z,65.11
2018-05-17T06:48:04.880Z,64.43
2018-05-17T06:50:33.213Z,64.15
2018-05-17T06:53:01.584Z,64.72
2018-05-17T06:55:29.914Z,64.80
2018-05-17T06:57:58.276Z,64.77
2018-05-17T07:00:26.612Z,64.16
2018-05-17T07:02:54.973Z,63.65
2018-05-17T07:05:23.308Z,63.47
2018-05-17T07:07:51.668Z,63.35
2018-05-17T07:10:20.028Z,63.05
2018-05-17T07:12:48.388Z,62.62
2018-05-17T07:15:16.749Z,62.73
2018-05-17T07:17:45.085Z,62.93
2018-05-17T07:20:13.449Z,62.65
2018-05-17T07:22:41.788Z,63.72
2018-05-17T07:25:10.153Z,63.43
2018-05-17T07:27:38.480Z,63.09
2018-05-17T07:30:06.865Z,63.50
2018-05-17T07:32:35.200Z,63.24
2018-05-17T07:35:03.594Z,62.97
2018-05-17T07:37:31.925Z,63.16
2018-05-17T07:40:00.429Z,61.59
2018-05-17T07:42:28.757Z,61.93
2018-05-17T07:44:57.110Z,61.88
2018-05-17T07:47:25.436Z,61.93
2018-05-17T07:49:53.785Z,60.76
2018-05-17T07:52:22.121Z,60.50
2018-05-17T07:54:50.486Z,61.52
2018-05-17T07:57:18.823Z,61.44
2018-05-17T07:59:48.077Z,60.59
2018-05-17T08:02:16.404Z,61.30
2018-05-17T08:04:44.756Z,60.33
2018-05-17T08:07:13.090Z,60.41
2018-05-17T08:09:41.436Z,60.63
2018-05-17T08:12:09.764Z,60.11
2018-05-17T08:14:38.111Z,58.83
2018-05-17T08:17:06.440Z,58.81
2018-05-17T08:19:34.876Z,60.33
2018-05-17T08:22:03.197Z,60.30
2018-05-17T08:24:31.552Z,59.90
2018-05-17T08:26:59.880Z,60.76
2018-05-17T08:29:28.237Z,61.04
2018-05-17T08:31:56.572Z,60.13
2018-05-17T08:34:24.933Z,60.39
2018-05-17T08:36:53.259Z,59.71
2018-05-17T08:39:21.630Z,59.33
2018-05-17T08:41:49.940Z,58.53
2018-05-17T08:44:18.288Z,59.03
2018-05-17T08:46:46.621Z,57.76
2018-05-17T08:49:14.972Z,57.23
2018-05-17T08:51:43.309Z,57.95
2018-05-17T08:54:11.665Z,57.25
2018-05-17T08:56:40.312Z,55.96
2018-05-17T08:59:08.718Z,56.03
2018-05-17T09:01:36.996Z,56.83
2018-05-17T09:04:05.344Z,55.91
2018-05-17T09:06:33.672Z,55.39
2018-05-17T09:09:02.034Z,56.06
2018-05-17T09:11:30.356Z,57.19
2018-05-17T09:13:58.720Z,57.60
2018-05-17T09:16:27.048Z,56.38
2018-05-17T09:18:55.386Z,55.83
2018-05-17T09:21:23.735Z,55.21
2018-05-17T09:23:52.081Z,55.44
2018-05-17T09:26:20.449Z,55.56
2018-05-17T09:28:48.779Z,55.36
2018-05-17T09:31:17.141Z,54.72
2018-05-17T09:33:45.473Z,52.47
2018-05-17T09:36:13.836Z,53.17
2018-05-17T09:38:42.172Z,53.34
2018-05-17T09:41:10.541Z,53.76
2018-05-17T09:43:38.864Z,52.95
2018-05-17T09:46:07.300Z,53.09
2018-05-17T09:48:35.549Z,52.16
2018-05-17T09:51:03.904Z,51.60
2018-05-17T09:53:32.237Z,52.30
2018-05-17T09:56:01.217Z,52.19
2018-05-17T09:58:29.549Z,51.51
2018-05-17T10:00:57.932Z,51.48
2018-05-17T10:03:26.260Z,51.80
2018-05-17T10:05:54.613Z,51.73
2018-05-17T10:08:22.946Z,50.85
2018-05-17T10:10:51.307Z,51.86
2018-05-17T10:13:19.637Z,50.53
2018-05-17T10:15:47.994Z,52.07
2018-05-17T10:18:16.325Z,51.73
2018-05-17T10:20:44.680Z,50.88
2018-05-17T10:23:13.107Z,50.29
2018-05-17T10:25:41.377Z,51.58
2018-05-17T10:28:09.705Z,51.92
2018-05-17T10:30:38.051Z,50.17
2018-05-17T10:33:06.382Z,51.23
2018-05-17T10:35:34.740Z,49.99
2018-05-17T10:38:03.061Z,50.40
2018-05-17T10:40:31.417Z,50.82
2018-05-17T10:42:59.759Z,51.01
2018-05-17T10:45:28.110Z,50.43
2018-05-17T10:47:56.437Z,51.62
2018-05-17T10:50:24.794Z,52.55
2018-05-17T10:52:53.116Z,50.89
2018-05-17T10:55:21.464Z,50.23
2018-05-17T10:57:49.797Z,50.10
2018-05-17T11:00:18.152Z,51.01
2018-05-17T11:02:46.482Z,52.43
2018-05-17T11:05:14.813Z,50.36
2018-05-17T11:07:43.168Z,50.68
2018-05-17T11:10:11.497Z,50.49
2018-05-17T11:12:39.845Z,49.23
2018-05-17T11:15:08.199Z,49.73
2018-05-17T11:17:36.532Z,49.11
2018-05-17T11:20:04.860Z,48.74
2018-05-17T11:22:33.213Z,46.85
2018-05-17T11:25:01.550Z,48.33
2018-05-17T11:27:29.964Z,49.16
2018-05-17T11:29:58.296Z,47.67
2018-05-17T11:32:26.808Z,48.23
2018-05-17T11:34:55.141Z,48.27
2018-05-17T11:37:23.649Z,48.23
2018-05-17T11:39:52.135Z,47.64
2018-05-17T11:42:20.565Z,49.27
2018-05-17T11:44:48.999Z,50.59
2018-05-17T11:47:17.354Z,49.29
2018-05-17T11:49:45.686Z,48.79
2018-05-17T11:52:14.952Z,48.54
2018-05-17T11:54:43.325Z,50.27
2018-05-17T11:57:11.701Z,48.25
2018-05-17T11:59:40.129Z,49.57
2018-05-17T12:02:08.593Z,48.41
2018-05-17T12:04:37.043Z,48.90
2018-05-17T12:07:05.600Z,48.90
2018-05-17T12:09:34.000Z,49.42
2018-05-17T12:12:02.906Z,50.19
2018-05-17T12:14:31.254Z,50.08
2018-05-17T12:16:59.640Z,50.19
2018-05-17T12:19:27.970Z,48.78
2018-05-17T12:21:56.329Z,47.86
2018-05-17T12:24:24.664Z,49.10
2018-05-17T12:26:53.048Z,47.94
2018-05-17T12:29:21.372Z,46.82
2018-05-17T12:31:49.940Z,48.20
2018-05-17T12:34:18.166Z,48.09
2018-05-17T12:36:46.521Z,47.96
2018-05-17T12:39:15.209Z,48.04
2018-05-17T12:41:43.729Z,48.96
2018-05-17T12:44:12.057Z,49.14
2018-05-17T12:46:40.457Z,47.18
2018-05-17T12:49:08.788Z,47.72
2018-05-17T12:51:37.264Z,48.70
2018-05-17T12:54:05.593Z,49.15
2018-05-17T12:56:33.945Z,47.81
2018-05-17T12:59:02.285Z,48.17
2018-05-17T13:01:30.652Z,47.48
2018-05-17T13:03:58.984Z,48.58
2018-05-17T13:06:27.321Z,48.96
2018-05-17T13:08:55.717Z,48.30
2018-05-17T13:11:24.041Z,46.90
2018-05-17T13:13:52.417Z,47.38
2018-05-17T13:16:20.861Z,49.07
2018-05-17T13:18:49.214Z,47.57
2018-05-17T13:21:17.576Z,47.68
2018-05-17T13:23:45.933Z,46.57
2018-05-17T13:26:14.578Z,45.95
2018-05-17T13:28:43.338Z,46.63
2018-05-17T13:31:12.034Z,47.00
2018-05-17T13:33:40.675Z,47.27
2018-05-17T13:36:09.255Z,47.51
2018-05-17T13:38:37.604Z,47.64
2018-05-17T13:41:05.933Z,48.06
2018-05-17T13:43:34.288Z,47.21
2018-05-17T13:46:02.617Z,47.44
2018-05-17T13:48:30.982Z,48.58
2018-05-17T13:50:59.321Z,48.31
2018-05-17T13:53:27.669Z,48.49
2018-05-17T13:55:56.009Z,47.91
2018-05-17T13:58:24.368Z,48.17
2018-05-17T14:00:52.692Z,49.04
2018-05-17T14:03:21.040Z,48.30
2018-05-17T14:05:49.385Z,47.87
2018-05-17T14:08:17.738Z,49.02
2018-05-17T14:10:46.064Z,48.74
2018-05-17T14:13:14.416Z,49.25
2018-05-17T14:15:42.749Z,49.48
2018-05-17T14:18:11.098Z,49.16
2018-05-17T14:20:39.429Z,49.66
2018-05-17T14:23:07.806Z,50.98
2018-05-17T14:25:36.116Z,51.30
2018-05-17T14:28:04.464Z,52.43
2018-05-17T14:30:32.793Z,52.25
2018-05-17T14:33:01.150Z,52.15
2018-05-17T14:35:29.476Z,52.79
2018-05-17T14:37:57.840Z,53.58
2018-05-17T14:40:26.169Z,54.30
2018-05-17T14:42:54.600Z,53.21
2018-05-17T14:45:25.930Z,52.93
2018-05-17T14:47:54.275Z,53.40
2018-05-17T14:50:22.604Z,53.41
2018-05-17T14:52:50.968Z,53.01
2018-05-17T14:55:19.296Z,52.66
2018-05-17T14:57:47.665Z,52.87
2018-05-17T15:00:15.990Z,52.64
2018-05-17T15:02:44.353Z,53.60
2018-05-17T15:05:12.681Z,53.80
2018-05-17T15:07:41.008Z,54.04
2018-05-17T15:10:09.366Z,54.14
2018-05-17T15:12:38.157Z,54.15
2018-05-17T15:15:06.511Z,54.09
2018-05-17T15:17:34.842Z,54.62
2018-05-17T15:20:03.189Z,54.48
2018-05-17T15:22:31.615Z,54.40
2018-05-17T15:24:59.952Z,55.54
2018-05-17T15:27:28.337Z,55.29
2018-05-17T15:29:56.748Z,54.86
2018-05-17T15:32:24.968Z,55.32
2018-05-17T15:34:53.337Z,55.48
2018-05-17T15:37:21.654Z,55.87
2018-05-17T15:39:50.000Z,55.94
2018-05-17T15:42:18.333Z,55.75
2018-05-17T15:44:46.685Z,55.94
2018-05-17T15:47:15.021Z,55.85
2018-05-17T15:49:43.381Z,56.35
2018-05-17T15:52:11.712Z,56.90
2018-05-17T15:54:40.069Z,56.18
2018-05-17T15:57:08.397Z,55.86
2018-05-17T15:59:36.748Z,55.98
2018-05-17T16:02:05.076Z,55.89
2018-05-17T16:04:33.428Z,55.80
2018-05-17T16:07:01.757Z,55.52
2018-05-17T16:09:30.109Z,55.46
2018-05-17T16:11:58.441Z,56.78
2018-05-17T16:14:26.789Z,56.31
2018-05-17T16:16:55.121Z,56.51
2018-05-17T16:19:23.467Z,56.31
2018-05-17T16:21:51.934Z,56.05
2018-05-17T16:24:20.155Z,56.02
2018-05-17T16:26:48.484Z,56.19
2018-05-17T16:29:16.832Z,56.88
2018-05-17T16:31:45.160Z,56.51
2018-05-17T16:34:14.448Z,57.03
2018-05-17T16:36:42.776Z,56.71
2018-05-17T16:39:11.123Z,57.12
2018-05-17T16:41:39.466Z,56.89
2018-05-17T16:44:07.817Z,56.73
2018-05-17T16:46:36.148Z,56.95
2018-05-17T16:49:04.513Z,57.42
2018-05-17T16:51:32.845Z,57.35
2018-05-17T16:54:01.261Z,57.45
2018-05-17T16:56:29.524Z,57.61
2018-05-17T16:58:57.876Z,57.76
2018-05-17T17:01:26.209Z,57.75
2018-05-17T17:03:54.560Z,58.13
2018-05-17T17:06:22.901Z,57.66
2018-05-17T17:08:51.221Z,57.76
2018-05-17T17:11:19.569Z,58.12
2018-05-17T17:13:47.902Z,57.64
2018-05-17T17:16:16.265Z,58.12
2018-05-17T17:18:44.589Z,57.69
2018-05-17T17:21:13.006Z,58.23
2018-05-17T17:23:41.611Z,57.75
2018-05-17T17:26:10.299Z,58.15
2018-05-17T17:28:38.724Z,58.40
2018-05-17T17:31:07.073Z,58.40
2018-05-17T17:33:35.400Z,58.48
2018-05-17T17:36:03.752Z,58.61
2018-05-17T17:38:32.085Z,58.58
2018-05-17T17:41:00.428Z,58.49
2018-05-17T17:43:28.757Z,58.53
2018-05-17T17:45:57.107Z,58.91
2018-05-17T17:48:25.437Z,59.02
2018-05-17T17:50:53.796Z,58.53
2018-05-17T17:53:22.128Z,58.74
2018-05-17T17:55:50.481Z,58.81
2018-05-17T17:58:18.817Z,59.03
2018-05-17T18:00:47.166Z,59.27
2018-05-17T18:03:15.493Z,59.34
2018-05-17T18:05:43.845Z,59.19
2018-05-17T18:08:12.176Z,58.99
2018-05-17T18:10:41.602Z,59.17
2018-05-17T18:13:10.285Z,59.31
2018-05-17T18:15:38.953Z,59.64
2018-05-17T18:18:07.708Z,59.67
2018-05-17T18:20:36.527Z,59.93
2018-05-17T18:23:05.292Z,60.10
2018-05-17T18:25:34.121Z,59.75
2018-05-17T18:28:02.838Z,59.77
2018-05-17T18:30:31.710Z,60.05
2018-05-17T18:33:00.403Z,60.25
2018-05-17T18:35:28.802Z,60.21
2018-05-17T18:37:57.132Z,60.37
2018-05-17T18:40:25.484Z,60.41
2018-05-17T18:42:53.820Z,60.42
2018-05-17T18:45:22.444Z,60.70
2018-05-17T18:47:50.772Z,61.11
2018-05-17T18:50:19.125Z,60.67
2018-05-17T18:52:47.449Z,60.72
2018-05-17T18:55:15.804Z,60.97
2018-05-17T18:57:44.132Z,61.25
2018-05-17T19:00:12.493Z,60.96
2018-05-17T19:02:40.828Z,60.91
2018-05-17T19:05:09.177Z,61.21
2018-05-17T19:07:37.513Z,60.84
2018-05-17T19:10:05.872Z,60.96
2018-05-17T19:12:34.192Z,61.05
2018-05-17T19:15:02.548Z,60.72
2018-05-17T19:17:30.888Z,61.31
2018-05-17T19:19:59.216Z,61.36
2018-05-17T19:22:27.564Z,61.36
2018-05-17T19:24:55.896Z,61.44
2018-05-17T19:27:24.240Z,61.21
2018-05-17T19:29:52.577Z,61.13
2018-05-17T19:32:20.934Z,61.18
2018-05-17T19:34:49.265Z,61.25
2018-05-17T19:37:17.697Z,61.22
2018-05-17T19:39:46.876Z,61.57
2018-05-17T19:42:15.230Z,61.29
2018-05-17T19:44:43.570Z,61.01
2018-05-17T19:47:11.958Z,61.13
2018-05-17T19:49:40.265Z,61.20
2018-05-17T19:52:08.622Z,61.50
2018-05-17T19:54:36.974Z,61.32
2018-05-17T19:57:05.318Z,61.64
2018-05-17T19:59:33.729Z,61.76
2018-05-17T20:02:02.165Z,61.73
2018-05-17T20:04:30.660Z,61.66
2018-05-17T20:06:59.181Z,61.54
2018-05-17T20:09:27.516Z,61.28
2018-05-17T20:11:55.868Z,61.58
2018-05-17T20:14:24.443Z,61.41
2018-05-17T20:16:52.998Z,61.59
2018-05-17T20:19:21.331Z,61.90
2018-05-17T20:21:49.685Z,61.91
2018-05-17T20:24:18.013Z,61.74
2018-05-17T20:26:46.362Z,61.82
2018-05-17T20:29:14.733Z,61.80
2018-05-17T20:31:43.064Z,61.71
2018-05-17T20:34:11.461Z,61.83
2018-05-17T20:36:39.859Z,62.09
2018-05-17T20:39:08.168Z,62.00
2018-05-17T20:41:36.517Z,62.11
2018-05-17T20:44:04.850Z,62.65
2018-05-17T20:46:33.215Z,62.56
2018-05-17T20:49:01.546Z,62.75
2018-05-17T20:51:29.902Z,62.52
2018-05-17T20:53:58.238Z,62.40
2018-05-17T20:56:26.661Z,62.53
2018-05-17T20:58:54.989Z,62.51
2018-05-17T21:01:23.378Z,62.40
2018-05-17T21:03:52.004Z,62.54
2018-05-17T21:06:20.389Z,62.98
2018-05-17T21:08:48.712Z,63.32
2018-05-17T21:11:17.098Z,63.34
2018-05-17T21:13:45.477Z,63.60
2018-05-17T21:16:14.093Z,63.43
2018-05-17T21:18:42.557Z,63.16
2018-05-17T21:21:10.968Z,63.29
2018-05-17T21:23:39.462Z,63.37
2018-05-17T21:26:07.775Z,63.57
2018-05-17T21:28:36.120Z,63.58
2018-05-17T21:31:04.647Z,63.53
2018-05-17T21:33:33.028Z,63.56
2018-05-17T21:36:01.357Z,63.85
2018-05-17T21:38:30.073Z,63.38
2018-05-17T21:40:58.402Z,63.43
2018-05-17T21:43:26.756Z,63.18
2018-05-17T21:45:55.084Z,63.34
2018-05-17T21:48:23.436Z,63.53
2018-05-17T21:50:51.770Z,63.61
2018-05-17T21:53:20.116Z,63.62
2018-05-17T21:55:48.444Z,64.13
2018-05-17T21:58:16.801Z,63.84
2018-05-17T22:00:45.148Z,63.52
2018-05-17T22:03:13.507Z,63.99
2018-05-17T22:05:41.833Z,63.86
2018-05-17T22:08:10.219Z,63.90
2018-05-17T22:10:38.539Z,64.23
2018-05-17T22:13:06.888Z,64.02
2018-05-17T22:15:35.216Z,64.00
2018-05-17T22:18:03.572Z,63.63
2018-05-17T22:20:31.897Z,63.66
2018-05-17T22:23:00.244Z,63.91
2018-05-17T22:25:28.577Z,63.89
2018-05-17T22:27:56.926Z,63.81
2018-05-17T22:30:25.253Z,64.15
2018-05-17T22:32:53.635Z,64.34
2018-05-17T22:35:21.936Z,64.29
2018-05-17T22:37:50.296Z,63.97
2018-05-17T22:40:18.629Z,64.16
2018-05-17T22:42:46.982Z,64.31
2018-05-17T22:45:15.300Z,64.46
2018-05-17T22:47:43.660Z,64.20
2018-05-17T22:50:12.000Z,64.18
2018-05-17T22:52:40.353Z,64.44
2018-05-17T22:55:08.684Z,64.61
2018-05-17T22:57:48.668Z,64.67
2018-05-17T23:00:17.013Z,64.77
2018-05-17T23:02:45.084Z,64.83
2018-05-17T23:05:13.423Z,64.83
2018-05-17T23:07:41.777Z,64.64
2018-05-17T23:10:10.116Z,64.66
2018-05-17T23:12:38.467Z,64.42
2018-05-17T23:15:06.800Z,64.56
2018-05-17T23:17:35.149Z,64.44
2018-05-17T23:20:03.476Z,64.27
2018-05-17T23:22:37.136Z,64.49
2018-05-17T23:25:08.198Z,64.91
2018-05-17T23:27:36.548Z,64.97
2018-05-17T23:30:04.880Z,64.96
2018-05-17T23:32:33.239Z,64.88
2018-05-17T23:35:01.577Z,65.16
2018-05-17T23:37:29.913Z,65.42
2018-05-17T23:40:10.034Z,64.96
2018-05-17T23:42:38.401Z,65.02
2018-05-17T23:45:06.728Z,65.04
2018-05-17T23:47:35.065Z,65.09
2018-05-17T23:50:03.416Z,64.97
2018-05-17T23:52:31.749Z,64.96
2018-05-17T23:55:00.105Z,65.32
2018-05-17T23:57:28.447Z,64.99
2018-05-17T23:59:56.793Z,64.86
